Latest Weather Observations for Tennant Creek

IDD60801

Issued at 8:01 pm CST Monday 3 August 2015 (issued every 30 minutes, with the page automatically refreshed every 10 minutes)

About weather observations | Map of weather stations | Latest weather observations for NT | Other Formats
Station Details ID: 015135 Name: TENNANT CREEK AIRPORT Lat: -19.64 Lon: 134.18 Height: 375.7 m
Data from the previous 72 hours. | See also: Recent months at Tennant Creek
Date/Time
CST
Temp
°C
App
Temp
°C
Dew
Point
Rel
Hum
%
Delta-T
°C
Wind Press
QNH
hPa
Press
MSL
hPa
Rain
since 9 am
mm
Dir
 
Spd
km/h
Gust
km/h
Spd
kts
Gust
kts
03/08:00pm 18.3 13.3 -4.5 21 9.2 ESE 13 20 7 11 1022.6 - 0.0
03/07:30pm 19.2 13.4 -4.7 19 9.7 ESE 17 22 9 12 1022.1 - 0.0
03/07:00pm 19.9 13.7 -4.5 19 10.0 ESE 19 26 10 14 1021.9 - 0.0
03/06:30pm 20.6 14.3 -4.2 18 10.3 ESE 20 28 11 15 1021.8 - 0.0
03/06:00pm 21.5 14.4 -4.4 17 10.8 SE 24 39 13 21 1021.6 1020.2 0.0
03/05:30pm 22.2 15.1 -4.5 16 11.2 SE 24 33 13 18 1021.4 - 0.0
03/05:00pm 22.7 15.2 -4.2 16 11.4 ESE 26 35 14 19 1021.2 - 0.0
03/04:30pm 23.2 16.0 -4.9 15 11.8 ESE 24 35 13 19 1021.0 - 0.0
03/04:00pm 23.3 15.8 -4.1 16 11.7 ESE 26 35 14 19 1021.0 - 0.0
03/03:30pm 23.8 16.7 -4.8 14 12.1 SE 24 35 13 19 1020.9 - 0.0
03/03:00pm 23.1 15.6 -4.6 15 11.7 E 26 32 14 17 1021.1 1019.6 0.0
03/02:30pm 22.9 15.1 -4.2 16 11.5 ESE 28 43 15 23 1021.4 - 0.0
03/02:10pm 22.5 14.7 -4.2 16 11.3 ESE 28 46 15 25 1021.7 - 0.0
03/02:00pm 22.3 14.9 -3.8 17 11.1 ESE 26 41 14 22 1021.9 - 0.0
03/01:30pm 21.3 13.2 -3.4 19 10.5 E 30 41 16 22 1022.2 - 0.0
03/01:00pm 21.0 12.8 -3.7 18 10.4 E 30 43 16 23 1022.7 - 0.0
03/12:41pm 21.1 13.3 -3.9 18 10.5 ESE 28 46 15 25 1023.1 - 0.0
03/12:30pm 20.9 13.1 -4.0 18 10.4 ESE 28 39 15 21 1023.3 - 0.0
03/12:00pm 19.9 11.8 -3.1 21 9.7 ESE 30 50 16 27 1023.8 1022.4 0.0
03/11:58am 20.0 12.3 -3.3 20 9.8 ESE 28 50 15 27 1023.9 - 0.0
03/11:30am 19.8 11.7 -2.9 21 9.6 E 30 35 16 19 1024.2 - 0.0
03/11:00am 18.3 9.8 -3.2 23 8.9 ESE 32 44 17 24 1024.5 - 0.0
03/10:30am 17.7 9.3 -2.8 24 8.6 ESE 32 44 17 24 1024.8 - 0.0
03/10:00am 16.8 8.8 -2.1 27 7.9 ESE 30 44 16 24 1024.7 - 0.0
03/09:36am 16.7 8.3 -2.3 27 7.9 ESE 32 50 17 27 1024.5 - 0.0
03/09:30am 16.6 8.2 -2.5 27 7.9 ESE 32 44 17 24 1024.4 - 0.0
03/09:12am 15.9 7.3 -2.3 28 7.5 ESE 33 52 18 28 1024.2 - 0.0
03/09:00am 15.7 7.9 -1.1 31 7.1 ESE 30 44 16 24 1024.1 1022.7 0.0
03/08:36am 15.1 7.4 -0.4 34 6.6 ESE 30 48 16 26 1023.8 - 0.0
03/08:30am 15.1 7.4 0.0 35 6.5 ESE 30 43 16 23 1023.9 - 0.0
03/08:00am 14.5 7.1 1.9 42 5.6 ESE 30 41 16 22 1023.1 - 0.0
03/07:30am 14.1 8.4 2.9 47 5.1 ESE 22 35 12 19 1022.5 - 0.0
03/07:00am 14.2 7.7 2.7 46 5.2 ESE 26 35 14 19 1021.8 - 0.0
03/06:30am 14.7 8.3 3.2 46 5.3 ESE 26 35 14 19 1021.5 - 0.0
03/06:00am 15.0 8.3 3.9 47 5.2 ESE 28 41 15 22 1020.9 1019.4 0.0
03/05:30am 15.5 8.5 4.3 47 5.3 ESE 30 44 16 24 1020.7 - 0.0
03/05:00am 16.0 9.5 4.7 47 5.4 ESE 28 41 15 22 1020.3 - 0.0
03/04:30am 16.4 10.0 5.3 47 5.4 ESE 28 39 15 21 1020.2 - 0.0
03/04:00am 16.8 10.9 5.9 48 5.4 ESE 26 35 14 19 1020.2 - 0.0
03/03:30am 17.4 11.6 6.4 48 5.5 ESE 26 41 14 22 1020.1 - 0.0
03/03:00am 18.0 12.6 6.2 46 5.9 ESE 24 33 13 18 1020.0 1018.6 0.0
03/02:30am 18.4 12.9 6.0 44 6.2 ESE 24 33 13 18 1020.0 - 0.0
03/02:00am 19.0 13.4 5.5 41 6.7 ESE 24 33 13 18 1020.0 - 0.0
03/01:30am 19.9 13.7 4.4 36 7.6 ESE 26 35 14 19 1019.9 - 0.0
03/01:00am 20.5 14.1 3.3 32 8.3 E 26 39 14 21 1019.9 - 0.0
03/12:30am 20.9 14.3 2.0 28 8.9 E 26 35 14 19 1019.9 - 0.0
03/12:00am 21.1 15.9 -0.1 24 9.6 E 17 26 9 14 1020.0 1018.6 0.0
 
Date/Time
CST
Temp
°C
App
Temp
°C
Dew
Point
Rel
Hum
%
Delta-T
°C
Wind Press
QNH
hPa
Press
MSL
hPa
Rain
since 9 am
mm
Dir
 
Spd
km/h
Gust
km/h
Spd
kts
Gust
kts
02/11:30pm 21.1 15.4 0.3 25 9.5 ESE 20 28 11 15 1020.2 - 0.0
02/11:13pm 22.6 15.3 -0.1 22 10.4 ESE 28 39 15 21 1020.2 - 0.0
02/11:00pm 20.2 16.9 2.7 31 8.3 E 9 11 5 6 1019.8 - 0.0
02/10:30pm 20.5 17.2 2.6 30 8.5 E 9 11 5 6 1019.7 - 0.0
02/10:00pm 20.2 17.5 2.4 30 8.4 NE 6 13 3 7 1019.6 - 0.0
02/09:30pm 20.9 18.8 5.7 37 7.7 NE 6 7 3 4 1019.4 - 0.0
02/09:00pm 21.8 18.8 2.3 27 9.3 NNE 7 9 4 5 1019.2 1017.8 0.0
02/08:30pm 22.4 19.9 4.0 30 9.1 N 6 7 3 4 1018.9 - 0.0
02/08:00pm 23.0 20.1 4.4 29 9.3 NNE 9 11 5 6 1018.6 - 0.0
02/07:30pm 23.7 20.6 3.8 27 9.9 NNE 9 11 5 6 1018.2 - 0.0
02/07:00pm 24.6 21.9 5.4 29 9.9 NE 9 11 5 6 1017.9 - 0.0
02/06:30pm 27.7 24.6 1.3 18 12.9 NNE 7 9 4 5 1017.8 - 0.0
02/06:00pm 29.4 26.2 -0.8 14 14.4 N 6 9 3 5 1017.4 1016.0 0.0
02/05:30pm 30.1 27.5 0.9 15 14.4 ESE 4 7 2 4 1017.2 - 0.0
02/05:00pm 29.6 26.6 1.0 16 14.1 NE 6 11 3 6 1017.1 - 0.0
02/04:30pm 30.3 27.1 -0.7 13 14.9 E 6 9 3 5 1017.0 - 0.0
02/04:00pm 30.5 28.0 1.5 15 14.5 SSE 4 9 2 5 1017.0 - 0.0
02/03:30pm 29.9 26.3 0.9 15 14.3 E 9 15 5 8 1017.1 - 0.0
02/03:00pm 30.3 26.5 1.8 16 14.3 NE 11 17 6 9 1017.3 1015.9 0.0
02/02:30pm 29.9 25.9 0.4 15 14.4 ESE 11 20 6 11 1017.6 - 0.0
02/02:00pm 30.5 27.6 1.5 15 14.5 S 6 11 3 6 1017.9 - 0.0
02/01:30pm 29.0 25.7 2.3 18 13.4 ENE 9 15 5 8 1018.5 - 0.0
02/01:00pm 29.5 26.4 1.1 16 14.0 E 7 15 4 8 1018.9 - 0.0
02/12:30pm 29.5 25.2 0.7 15 14.1 NNE 13 22 7 12 1019.2 - 0.0
02/12:00pm 28.1 24.2 1.0 17 13.2 N 11 20 6 11 1019.7 1018.3 0.0
02/11:30am 28.1 23.7 0.2 16 13.4 NNE 13 20 7 11 1020.0 - 0.0
02/11:00am 27.6 23.2 0.6 17 13.0 NNE 13 22 7 12 1020.4 - 0.0
02/10:30am 27.1 22.2 -0.5 16 13.0 NNE 15 20 8 11 1020.5 - 0.0
02/10:00am 25.8 21.1 0.6 19 12.0 NNE 15 20 8 11 1020.4 - 0.0
02/09:30am 25.6 20.1 0.5 19 11.9 NNE 19 24 10 13 1020.4 - 0.0
02/09:00am 24.7 21.3 1.6 22 11.1 ENE 9 11 5 6 1020.1 1018.7 0.0
02/08:30am 22.0 19.6 2.3 27 9.4 ENE 4 7 2 4 1019.9 - 0.0
02/08:00am 19.3 16.4 2.5 32 7.9 E 7 9 4 5 1019.5 - 0.0
02/07:30am 16.3 13.5 2.9 40 6.2 E 7 9 4 5 1018.9 - 0.0
02/07:00am 15.7 12.8 2.6 41 6.0 E 7 9 4 5 1018.7 - 0.0
02/06:30am 13.0 10.3 3.9 54 4.2 E 7 7 4 4 1018.5 - 0.0
02/06:00am 13.2 11.4 3.3 51 4.5 SSE 2 7 1 4 1018.3 1016.8 0.0
02/05:30am 13.6 12.2 3.3 49 4.7 CALM 0 0 0 0 1018.1 - 0.0
02/05:00am 14.8 12.2 3.3 46 5.3 S 6 7 3 4 1017.9 - 0.0
02/04:30am 16.0 13.1 1.5 37 6.5 SSE 6 7 3 4 1017.9 - 0.0
02/04:00am 14.6 12.0 3.3 46 5.2 ESE 6 6 3 3 1017.9 - 0.0
02/03:30am 14.6 12.6 4.4 50 4.8 E 4 6 2 3 1017.9 - 0.0
02/03:00am 15.1 13.9 4.8 50 4.9 CALM 0 0 0 0 1017.9 1016.4 0.0
02/02:30am 15.1 13.7 3.8 46 5.3 CALM 0 0 0 0 1018.0 - 0.0
02/02:00am 14.8 13.5 4.2 49 5.0 CALM 0 0 0 0 1018.2 - 0.0
02/01:30am 15.0 13.7 3.9 47 5.2 CALM 0 0 0 0 1018.3 - 0.0
02/01:00am 15.0 13.6 3.6 46 5.3 CALM 0 0 0 0 1018.5 - 0.0
02/12:30am 15.0 12.9 3.9 47 5.2 W 4 6 2 3 1018.5 - 0.0
02/12:00am 16.1 13.4 2.6 40 6.2 W 6 7 3 4 1018.6 1017.1 0.0
 
Date/Time
CST
Temp
°C
App
Temp
°C
Dew
Point
Rel
Hum
%
Delta-T
°C
Wind Press
QNH
hPa
Press
MSL
hPa
Rain
since 9 am
mm
Dir
 
Spd
km/h
Gust
km/h
Spd
kts
Gust
kts
01/11:30pm 16.1 11.9 1.7 38 6.5 WSW 13 15 7 8 1018.5 - 0.0
01/11:00pm 19.3 16.8 4.6 38 7.2 E 7 9 4 5 1018.4 - 0.0
01/10:30pm 19.7 16.5 2.9 33 8.0 E 9 9 5 5 1018.3 - 0.0
01/10:00pm 19.4 17.0 5.3 39 7.0 ENE 7 9 4 5 1018.3 - 0.0
01/09:30pm 20.5 17.6 4.8 35 7.8 E 9 9 5 5 1018.1 - 0.0
01/09:00pm 19.4 16.5 2.7 33 7.9 ENE 7 11 4 6 1017.9 1016.4 0.0
01/08:30pm 19.3 16.8 3.7 35 7.5 NE 6 7 3 4 1017.8 - 0.0
01/08:00pm 20.4 18.4 4.6 35 7.8 NE 4 6 2 3 1017.4 - 0.0
01/07:30pm 21.4 19.5 4.8 33 8.3 NE 4 6 2 3 1016.9 - 0.0
01/07:00pm 22.5 20.3 3.6 29 9.3 NE 4 6 2 3 1016.6 - 0.0
01/06:30pm 24.5 22.0 3.7 26 10.4 NW 6 7 3 4 1016.4 - 0.0
01/06:00pm 28.0 25.6 2.4 19 12.8 NNW 4 6 2 3 1016.1 1014.6 0.0
01/05:30pm 28.6 25.3 -1.0 14 14.0 N 6 9 3 5 1016.0 - 0.0
01/05:00pm 29.0 25.6 -0.9 14 14.2 N 7 15 4 8 1016.2 - 0.0
01/04:30pm 29.2 26.7 1.6 17 13.7 N 4 7 2 4 1016.2 - 0.0
01/04:00pm 29.3 25.2 -0.1 15 14.2 NW 11 22 6 12 1016.1 - 0.0
01/03:30pm 29.0 24.2 -2.3 13 14.5 NNW 13 24 7 13 1016.3 - 0.0
01/03:00pm 28.7 25.1 0.9 16 13.6 NNW 9 13 5 7 1016.5 1015.1 0.0
01/02:30pm 28.7 25.9 2.0 18 13.3 ESE 6 13 3 7 1017.2 - 0.0
01/02:00pm 28.8 24.8 0.3 16 13.8 NNW 11 17 6 9 1017.6 - 0.0
01/01:30pm 28.5 24.0 -0.5 15 13.8 N 13 24 7 13 1018.1 - 0.0
01/01:00pm 27.9 23.6 1.0 17 13.1 N 13 24 7 13 1018.6 - 0.0
01/12:30pm 27.7 22.7 1.3 18 12.9 N 17 26 9 14 1019.2 - 0.0
01/12:00pm 26.9 21.9 1.4 19 12.4 N 17 28 9 15 1019.7 1018.3 0.0
01/11:30am 26.2 21.4 2.5 21 11.7 N 17 24 9 13 1020.1 - 0.0
01/11:00am 25.3 21.2 2.5 22 11.2 N 13 20 7 11 1020.4 - 0.0
01/10:30am 23.4 18.6 2.6 25 10.1 N 17 22 9 12 1020.8 - 0.0
01/10:00am 21.9 17.7 1.5 26 9.6 NNE 13 20 7 11 1020.9 - 0.0
01/09:30am 20.7 15.1 -3.0 20 10.1 NE 17 24 9 13 1020.5 - 0.0
01/09:00am 19.2 12.9 -4.2 20 9.6 ENE 20 28 11 15 1020.3 1018.9 0.0
01/08:30am 18.1 11.9 -4.4 21 9.1 ENE 19 24 10 13 1020.0 - 0.0
01/08:00am 16.1 10.7 -4.3 24 8.1 E 15 20 8 11 1019.5 - 0.0
01/07:30am 15.8 10.4 -4.5 24 8.0 E 15 20 8 11 1018.9 - 0.0
01/07:00am 15.1 9.7 -4.2 26 7.6 E 15 22 8 12 1018.6 - 0.0
01/06:30am 15.9 10.1 -4.7 24 8.1 E 17 24 9 13 1018.4 - 0.0
01/06:00am 16.3 10.5 -4.8 23 8.3 E 17 24 9 13 1018.0 1016.5 0.0
01/05:30am 16.5 10.7 -4.8 23 8.4 E 17 20 9 11 1017.9 - 0.0
01/05:00am 16.2 10.5 -4.1 24 8.1 E 17 22 9 12 1017.9 - 0.0
01/04:30am 16.6 11.2 -4.1 24 8.3 E 15 22 8 12 1017.8 - 0.0
01/04:00am 17.2 11.5 -4.1 23 8.6 E 17 24 9 13 1017.8 - 0.0
01/03:30am 17.3 12.4 -3.5 24 8.5 ESE 13 20 7 11 1017.6 - 0.0
01/03:00am 17.8 12.9 -3.3 23 8.7 ESE 13 22 7 12 1017.6 1016.2 0.0
01/02:30am 18.0 13.2 -2.4 25 8.6 E 13 20 7 11 1017.6 - 0.0
01/02:00am 17.8 13.1 -1.6 26 8.3 ESE 13 15 7 8 1017.9 - 0.0
01/01:30am 17.8 13.6 -1.2 27 8.2 E 11 15 6 8 1018.1 - 0.0
01/01:00am 17.9 14.1 -0.7 28 8.1 E 9 13 5 7 1018.3 - 0.0
01/12:30am 18.0 14.3 -0.1 29 8.0 E 9 13 5 7 1018.4 - 0.0
01/12:00am 18.0 14.0 0.2 30 7.9 E 11 13 6 7 1018.5 1017.5 0.0
 
Date/Time
CST
Temp
°C
App
Temp
°C
Dew
Point
Rel
Hum
%
Delta-T
°C
Wind Press
QNH
hPa
Press
MSL
hPa
Rain
since 9 am
mm
Dir
 
Spd
km/h
Gust
km/h
Spd
kts
Gust
kts
31/11:30pm 18.1 14.2 1.1 32 7.7 E 11 13 6 7 1018.8 - 0.0
31/11:00pm 18.0 14.2 1.6 33 7.5 E 11 13 6 7 1018.8 - 0.0
31/10:30pm 18.4 14.6 1.9 33 7.6 E 11 13 6 7 1018.7 - 0.0
31/10:00pm 19.0 15.6 2.0 32 7.9 E 9 11 5 6 1018.6 - 0.0
31/09:30pm 19.1 15.4 2.2 32 7.9 E 11 13 6 7 1018.5 - 0.0
31/09:00pm 19.9 16.5 1.9 30 8.4 E 9 11 5 6 1018.4 1017.4 0.0
31/08:30pm 21.3 17.8 1.4 26 9.3 E 9 13 5 7 1018.1 - 0.0

Other Formats:

Comma delimited format used in spreadsheet applications
http://www.bom.gov.au/fwo/IDD60801/IDD60801.94238.axf

JavaScript Object Notation format (JSON) in row-major order
http://www.bom.gov.au/fwo/IDD60801/IDD60801.94238.json